Terminal Aerodrome Forecast
Issued by NWS

Home | Current Version | Previous Version | Text Only | Print | Product List | Glossary On
Versions: 1 2 3 4 5 6 7 8 9 10 11 12 13 14 15 16 17 18 19 20 21 22 23 24 25 26 27
000
FTUS46 KSGX 042330
TAFSAN
TAF
KSAN 042330Z 0500/0606 28009KT P6SM FEW025 SCT035
     FM050230 VRB05KT P6SM SCT025
      TEMPO 0503/0506 BKN025
     FM050600 VRB05KT P6SM OVC025
     FM051230 VRB05KT P6SM OVC030
     FM052000 27010KT P6SM FEW025
     FM060230 VRB05KT P6SM SCT020=

USA.gov is the U.S. government's official web portal to all federal, state and local government web resources and services.